Flugplatz Blaubeuren

Für EDMC sind keine METAR/TAF Berichte vorhanden.
Es werden die Flugwettermeldungen vom Flugplatz Laupheim Airport in 23 km Entfernung angezeigt.

Bericht für ETHL

vom 23.05. um 17:20 UTC

Wind 6 kt aus 30°

Sichtweite 10 km oder mehr

gering bewölkt in 5000 ft

aufgelockert bewölkt in 32000 ft

Temperatur 18.0°C

Taupunkt 5.0°C

Luftfeuchtigkeit 42%

Luftdruck 1017 hPa

ETHL 231720Z 03006KT 9999 FEW050 SCT320 18/05 Q1017 BLU+

Prognose für ETHL

vom 23.05. um 14:20 UTC

Zwischen 14:00 UTC und 23:00 UTC

Wind 5 kt aus 60°

Sichtweite 10 km oder mehr

keine signifikanten Wettererscheinungen

gering bewölkt in 4000 ft

aufgelockert bewölkt in 32000 ft

TAF AMD ETHL 231420Z 2314/2323 06005KT 9999 NSW FEW040 SCT320 CANCEL 1500
Impressum